• Join FlightAware (Why Join?)
  • Login
  • US Flag 
08:59PM EST


 

Airport Tracker/Info


-or-


 

Live Flight TrackerFlight Track Log ✈ 9Y-JMA ✈ 01-May-2013 ✈ SYCJ / GEO - TTPP / POS

Flight Track Log - Related Links

Times and Time Zones

All times are in EDT time to prevent confusion due to time zone crossing. See the 9Y-JMA flight status page for this flight to view local times or setup timezone preferences in your user account.

Time Position Orientation Groundspeed Altitude Reporting Facility
EDT Latitude Longitude Course Direction KTS MPH feet Rate Location/Type
10:28AM 8.0937 -59.4447 324° Northwest  Level Estimated
10:29AM 8.2075 -59.5301 323° Northwest  Level Estimated
10:30AM 8.3213 -59.6155 323° Northwest  Level Estimated
10:31AM 8.4351 -59.7010 323° Northwest  Level Estimated
10:32AM 8.5489 -59.7865 323° Northwest  Level Estimated
10:33AM 8.6626 -59.8721 323° Northwest  Level Estimated
10:34AM 8.7763 -59.9577 323° Northwest  Level Estimated
10:35AM 8.8900 -60.0434 323° Northwest  Level Estimated
10:36AM 9.0037 -60.1292 323° Northwest  Level Estimated
10:37AM 9.1174 -60.2150 323° Northwest  Level Estimated
10:38AM 9.2310 -60.3008 323° Northwest  Level Estimated
10:39AM 9.3446 -60.3867 323° Northwest  Level Estimated
10:40AM 9.4582 -60.4727 323° Northwest  Level Estimated
10:41AM 9.5718 -60.5587 323° Northwest  Level Estimated
10:42AM 9.6854 -60.6448 323° Northwest  Level Estimated
10:43AM 9.7989 -60.7309 323° Northwest  Level Estimated
10:44AM 9.9124 -60.8171 323° Northwest  Level Estimated
10:45AM 10.0259 -60.9033 323° Northwest  Level Estimated
10:46AM 10.1394 -60.9896 323° Northwest  Level Estimated
10:47AM 10.2529 -61.0760 323° Northwest  Level Estimated
10:48AM 10.3663 -61.1624 323° Northwest  Level Estimated
10:49AM 10.4797 -61.2489 323° Northwest  Level Estimated
10:50AM 10.5931 -61.3355 323° Northwest  Level Estimated
10:51AM 10.5954 -61.3372 323° Northwest  Level Estimated
10:52AM 10.5954 -61.3372 243° Southwest  Level Estimated
10:53AM 10.5954 -61.3372 243° Southwest  Level Estimated
10:54AM 10.5954 -61.3372 243° Southwest  Level Estimated
10:55AM 10.5954 -61.3372 243° Southwest  Level Estimated
10:56AM 10.5954 -61.3372 243° Southwest  Level Estimated
10:57AM 10.5954 -61.3372 243° Southwest  Level Estimated
10:58AM 10.5954 -61.3372 243° Southwest  Level Estimated
10:59AM 10.5954 -61.3372 243° Southwest  Level Estimated
11:00AM 10.5954 -61.3372 243° Southwest  Level Estimated
11:01AM 10.5954 -61.3372 243° Southwest  Level Estimated
11:02AM 10.5954 -61.3372 243° Southwest  Level Estimated
11:03AM 10.5954 -61.3372 243° Southwest  Level Estimated
11:04AM 10.5954 -61.3372 243° Southwest  Level Estimated
11:05AM 10.5954 -61.3372 243° Southwest  Level Estimated
11:06AM 10.5954 -61.3372 243° Southwest  Level Estimated